Latest Coastal Weather Observations for Smithton

IDT60701

Issued at 3:02 am EST Thursday 28 May 2020 (issued every 10 minutes, with the page automatically refreshed every 10 minutes)

About coastal observations | Map of coastal stations | Coastal observations for TAS | Marine services | Other Formats
Station Details ID: 091292 Name: SMITHTON AERODROME Lat: -40.83 Lon: 145.08 Height: 7.5 m
Data from the previous 72 hours. | See also: Recent months at Smithton
Date/Time
EST
Wind Sea
Height
m
Swell Vis
km
Cloud Weather Temp
°C
Press
hPa
Rain since
9am
mm
Dir  Spd
kts
Gust
kts
Height
m
Period
s
Dir
28/03:00am NNW 4 4 - - - - - - - 10.9 1016.4 0.6
28/02:30am NW 4 5 - - - - - - - 11.2 1016.3 0.6
28/02:00am CALM 0 0 - - - - - - - 11.4 1016.2 0.6
28/01:30am CALM 0 0 - - - - - - - 11.2 1016.2 0.4
28/01:00am NNW 3 4 - - - - - - - 11.8 1016.4 0.4
28/12:30am NW 6 9 - - - - - - - 12.1 1016.5 0.4
28/12:00am NW 8 13 - - - - - - - 12.4 1016.7 0.2
 
Date/Time
EST
Wind Sea
Height
m
Swell Vis
km
Cloud Weather Temp
°C
Press
hPa
Rain since
9am
mm
Dir  Spd
kts
Gust
kts
Height
m
Period
s
Dir
27/11:30pm NW 9 12 - - - - - - - 13.0 1016.6 0.2
27/11:00pm NNW 8 11 - - - - - - - 13.2 1016.6 0.2
27/10:30pm N 9 12 - - - - - - - 13.3 1016.6 0.2
27/10:00pm N 8 11 - - - - - - - 13.0 1016.8 0.2
27/09:30pm N 8 11 - - - - - - - 13.1 1016.9 0.2
27/09:00pm N 8 11 - - - - - - Recent precip. 12.9 1016.9 0.2
27/08:30pm NNE 6 7 - - - - - - - 12.7 1016.9 0.0
27/08:00pm N 5 6 - - - - - - - 12.8 1017.0 0.0
27/07:30pm N 7 10 - - - - - - - 13.1 1017.0 0.0
27/07:00pm N 8 11 - - - - - - - 13.0 1016.9 0.0
27/06:30pm NNE 7 9 - - - - - - - 12.8 1016.8 0.0
27/06:00pm NNE 7 9 - - - - - - - 12.9 1016.8 0.0
27/05:30pm NNE 8 10 - - - - - - - 12.9 1016.7 0.0
27/05:00pm N 8 10 - - - - - - - 13.0 1016.6 0.0
27/04:30pm N 8 11 - - - - - - - 13.3 1016.7 0.0
27/04:00pm N 9 13 - - - - - - - 13.5 1016.6 0.0
27/03:30pm N 9 11 - - - - - - - 13.9 1016.5 0.0
27/03:00pm N 11 14 - - - - - - - 14.9 1016.4 0.0
27/02:30pm N 11 16 - - - - - - - 14.5 1016.6 0.0
27/02:00pm N 11 15 - - - - - - - 14.7 1016.9 0.0
27/01:30pm N 11 16 - - - - - - - 15.2 1017.1 0.0
27/01:00pm NNE 11 14 - - - - - - - 14.8 1017.4 0.0
27/12:30pm NNE 10 13 - - - - - - - 14.6 1017.7 0.0
27/12:00pm NNE 9 13 - - - - - - - 14.8 1018.1 0.0
27/11:30am NNE 9 12 - - - - - - - 14.3 1018.7 0.0
27/11:00am NE 9 13 - - - - - - - 14.5 1019.0 0.0
27/10:30am NE 9 11 - - - - - - - 14.3 1019.5 0.0
27/10:00am NE 9 11 - - - - - - - 14.4 1019.5 0.0
27/09:30am ENE 9 11 - - - - - - - 13.7 1019.7 0.0
27/09:00am ENE 9 11 - - - - - - - 13.2 1019.7 0.0
27/08:30am ENE 8 11 - - - - - - - 12.6 1020.0 0.0
27/08:00am ENE 8 10 - - - - - - - 12.5 1020.0 0.0
27/07:30am ENE 9 12 - - - - - - - 12.6 1020.0 0.0
27/07:00am ENE 9 12 - - - - - - - 12.7 1019.9 0.0
27/06:30am NE 11 13 - - - - - - - 13.0 1019.9 0.0
27/06:00am ENE 10 13 - - - - - - - 13.1 1020.0 0.0
27/05:30am NE 11 14 - - - - - - - 13.1 1020.1 0.0
27/05:00am ENE 10 14 - - - - - - - 13.2 1020.3 0.0
27/04:30am NE 10 13 - - - - - - - 13.3 1020.4 0.0
27/04:00am ENE 11 16 - - - - - - - 13.4 1020.4 0.0
27/03:30am NE 12 16 - - - - - - - 13.3 1020.6 0.0
27/03:00am NE 13 17 - - - - - - - 13.3 1020.7 0.0
27/02:30am NE 12 17 - - - - - - - 13.3 1020.8 0.0
27/02:00am ENE 13 18 - - - - - - - 13.2 1020.9 0.0
27/01:30am ENE 13 17 - - - - - - - 13.1 1021.0 0.0
27/01:00am ENE 13 18 - - - - - - - 13.1 1021.3 0.0
27/12:30am NE 13 17 - - - - - - - 13.1 1021.6 0.0
27/12:00am ENE 12 16 - - - - - - - 13.0 1022.0 0.0
 
Date/Time
EST
Wind Sea
Height
m
Swell Vis
km
Cloud Weather Temp
°C
Press
hPa
Rain since
9am
mm
Dir  Spd
kts
Gust
kts
Height
m
Period
s
Dir
26/11:30pm NE 12 17 - - - - - - - 12.6 1022.2 0.0
26/11:00pm ENE 13 18 - - - - - - - 12.4 1022.3 0.0
26/10:30pm ENE 14 20 - - - - - - - 11.7 1022.3 0.0
26/10:00pm ENE 15 21 - - - - - - - 12.2 1022.5 0.0
26/09:30pm ENE 15 22 - - - - - - - 12.1 1022.8 0.0
26/09:00pm ENE 15 23 - - - - - - - 12.0 1022.8 0.0
26/08:30pm ENE 15 21 - - - - - - - 12.5 1023.1 0.0
26/08:00pm ENE 13 17 - - - - - - - 12.6 1023.3 0.0
26/07:30pm ENE 14 22 - - - - - - - 12.5 1023.1 0.0
26/07:00pm ENE 14 19 - - - - - - - 12.2 1023.3 0.0
26/06:30pm ENE 13 16 - - - - - - - 12.0 1023.3 0.0
26/06:00pm ENE 15 19 - - - - - - - 11.8 1023.3 0.0
26/05:30pm NE 12 16 - - - - - - - 11.7 1023.4 0.0
26/05:00pm NE 13 18 - - - - - - - 11.5 1023.1 0.0
26/04:30pm ENE 15 20 - - - - - - - 11.2 1023.1 0.0
26/04:00pm ENE 14 21 - - - - - - - 12.0 1023.2 0.0
26/03:30pm ENE 15 22 - - - - - - - 11.8 1023.5 0.0
26/03:00pm ENE 16 23 - - - - - - - 12.1 1023.6 0.0
26/02:30pm ENE 16 24 - - - - - - - 12.6 1023.8 0.0
26/02:00pm ENE 17 23 - - - - - - - 12.5 1024.2 0.0
26/01:30pm ENE 17 23 - - - - - - - 12.8 1024.5 0.0
26/01:00pm ENE 14 23 - - - - - - - 12.7 1024.8 0.0
26/12:30pm ENE 15 20 - - - - - - - 12.3 1025.3 0.0
26/12:00pm ENE 14 20 - - - - - - - 11.7 1025.9 0.0
26/11:30am ENE 15 20 - - - - - - - 11.9 1026.3 0.0
26/11:00am ENE 18 25 - - - - - - - 12.0 1026.4 0.0
26/10:30am ENE 14 20 - - - - - - - 12.2 1026.8 0.0
26/10:00am NE 15 21 - - - - - - - 12.8 1026.9 0.0
26/09:30am ENE 14 20 - - - - - - - 12.4 1027.0 0.0
26/09:00am NE 13 18 - - - - - - - 12.1 1027.1 0.2
26/08:30am NE 14 22 - - - - - - - 12.1 1027.2 0.2
26/08:00am ENE 13 19 - - - - - - - 11.4 1027.0 0.2
26/07:30am ENE 13 18 - - - - - - - 11.2 1026.6 0.2
26/07:00am ENE 13 17 - - - - - - - 11.0 1026.7 0.2
26/06:30am ENE 13 17 - - - - - - - 11.1 1026.9 0.2
26/06:00am ENE 8 11 - - - - - - - 10.4 1026.9 0.2
26/05:30am E 10 13 - - - - - - - 10.2 1026.9 0.2
26/05:00am E 11 15 - - - - - - - 10.3 1026.9 0.2
26/04:30am ENE 10 14 - - - - - - - 10.1 1027.0 0.2
26/04:00am E 9 14 - - - - - - - 9.6 1027.0 0.2
26/03:30am E 10 13 - - - - - - - 9.7 1027.3 0.2
26/03:00am E 7 9 - - - - - - - 9.8 1027.4 0.2
26/02:30am E 10 13 - - - - - - - 9.9 1027.3 0.2
26/02:00am ENE 7 9 - - - - - - - 10.0 1027.3 0.2
26/01:30am E 6 8 - - - - - - - 9.7 1027.2 0.2
26/01:00am E 7 10 - - - - - - - 9.6 1027.4 0.2
26/12:30am E 8 11 - - - - - - - 9.4 1027.8 0.2
26/12:00am E 7 9 - - - - - - - 8.9 1028.2 0.2
 
Date/Time
EST
Wind Sea
Height
m
Swell Vis
km
Cloud Weather Temp
°C
Press
hPa
Rain since
9am
mm
Dir  Spd
kts
Gust
kts
Height
m
Period
s
Dir
25/11:30pm E 7 8 - - - - - - - 8.6 1028.1 0.2
25/11:00pm ESE 6 8 - - - - - - - 8.0 1028.1 0.2
25/10:30pm E 6 7 - - - - - - - 7.1 1028.0 0.2
25/10:00pm ESE 6 8 - - - - - - - 4.5 1028.1 0.2
25/09:30pm E 6 7 - - - - - - - 2.7 1027.9 0.2
25/09:00pm S 4 4 - - - - - - - 2.8 1027.9 0.2
25/08:30pm CALM 0 0 - - - - - - - 4.2 1028.1 0.2
25/08:00pm S 3 4 - - - - - - - 4.0 1028.0 0.2
25/07:30pm S 4 5 - - - - - - - 5.5 1028.0 0.0
25/07:00pm SSE 4 5 - - - - - - - 7.4 1028.0 0.0
25/06:30pm SSW 5 6 - - - - - - - 7.4 1027.7 0.0
25/06:00pm SE 4 5 - - - - - - - 8.5 1027.4 0.0
25/05:30pm ESE 5 6 - - - - - - - 8.7 1027.1 0.0
25/05:00pm E 5 7 - - - - - - - 9.8 1027.1 0.0
25/04:30pm ENE 6 8 - - - - - - - 9.9 1027.2 0.0
25/04:00pm E 7 9 - - - - - - - 11.0 1027.4 0.0
25/03:30pm E 6 8 - - - - - - - 11.6 1027.4 0.0
25/03:00pm ENE 6 8 - - - - - - - 11.6 1027.3 0.0
25/02:30pm ENE 9 11 - - - - - - - 11.5 1027.1 0.0
25/02:00pm ENE 10 13 - - - - - - - 11.3 1026.8 0.0
25/01:30pm ENE 11 15 - - - - - - - 12.3 1026.4 0.0
25/01:00pm ENE 11 15 - - - - - - - 12.4 1026.3 0.0
25/12:30pm ENE 11 14 - - - - - - - 11.9 1026.3 0.0
25/12:00pm ENE 10 13 - - - - - - - 12.2 1026.6 0.0
25/11:30am NE 9 13 - - - - - - - 11.7 1027.1 0.0
25/11:00am ENE 8 11 - - - - - - - 11.1 1027.5 0.0
25/10:30am ESE 5 6 - - - - - - - 9.3 1027.8 0.0
25/10:00am S 5 7 - - - - - - - 7.5 1028.3 0.0
25/09:30am SE 5 8 - - - - - - - 7.3 1028.2 0.0
25/09:00am ESE 5 7 - - - - - - - 6.5 1028.1 0.0
25/08:30am SSE 4 5 - - - - - - - 4.2 1027.9 0.0
25/08:00am ESE 7 9 - - - - - - - 4.4 1027.4 0.0
25/07:30am ESE 6 7 - - - - - - - 3.4 1026.9 0.0
25/07:00am ESE 4 6 - - - - - - - 2.8 1026.7 0.0
25/06:30am ESE 4 5 - - - - - - - 3.0 1026.3 0.0
25/06:00am ESE 7 9 - - - - - - - 3.7 1026.1 0.0
25/05:30am S 3 5 - - - - - - - 0.6 1025.9 0.0
25/05:00am SSE 3 4 - - - - - - - 1.0 1025.6 0.0
25/04:30am SSW 7 8 - - - - - - - 1.1 1025.6 0.0
25/04:00am SSE 4 4 - - - - - - - 1.6 1025.5 0.0
25/03:30am S 6 6 - - - - - - - 2.1 1025.8 0.0

Other formats

Comma delimited format used in spreadsheet applications
http://www.bom.gov.au/fwo/IDT60701/IDT60701.94953.axf

JavaScript Object Notation format (JSON) in row-major order
http://www.bom.gov.au/fwo/IDT60701/IDT60701.94953.json

Data quality

Most of these data are generated automatically and are frequently updated. Quality checks on data are not normally performed. It is possible for incorrect values to appear. Refer to information at About Latest Weather Observations and please check the disclaimer before using these data.